Navarre, FL

6:21 PM CDT on September 18, 2014 (GMT -0500)
Mossy Cove | Change Station
CLOSE
Current Station
Personal Weather Station
Location: Navarre, FL
Elevation: 24 ft
Nearby Weather Stations

Elev 24 ft 30.45 °N, 86.94 °W | Updated 1 minute ago

Mostly Cloudy
Mostly Cloudy
79.7 °F
Feels Like 85 °F
N
0.0
Wind Variable Wind from SW
Gusts 1.0 mph

Today
High -- | Low -- °F
--% Chance of Precip.
Yesterday
High -- | Low -- °F
Precip. -- in
6:33 AM 6:49 PM
Waning Crescent, 24% visible
Pressure 29.89 in
Visibility 10.0 miles
Clouds Clear
Heat Index 85 °F
Dew Point 77 °F
Humidity 92%
Rainfall 0.29 in
Snow Depth Not available.
UV 1 out of 12
Pollen 8.80 out of 12
Ozone Good
PM2.5 Good
Flu Activity Not available.
METAR KHRT 182258Z AUTO 34002KT 10SM CLR 28/20 A2988 RMK AO2 SLP120 T02830203 $

More Conditions Fewer Conditions

Pressure 29.89 in
Visibility 10.0 miles
Clouds Clear
Heat Index 85 °F
Dew Point 77 °F
Humidity 92%
Rainfall 0.29 in
Snow Depth Not available.
UV 1 out of 12
Pollen 8.80 out of 12
Ozone Good
PM2.5 Good
Flu Activity Not available.
METAR KHRT 182258Z AUTO 34002KT 10SM CLR 28/20 A2988 RMK AO2 SLP120 T02830203 $

More Conditions Fewer Conditions

10-Day Weather Forecast

Almanac

Astronomy

Sep. 18, 2014 Rise Set
Actual Time 6:33 AM CDT 6:49 PM CDT
Civil Twilight 6:09 AM CDT 7:13 PM CDT
Nautical Twilight 5:41 AM CDT 7:41 PM CDT
Astronomical Twilight 5:13 AM CDT 8:09 PM CDT
Moon 1:41 AM CDT 3:25 PM CDT
Length of Visible Light 13h 03m
Length of Day
12h 15m
Tomorrow will be 1m 50s shorter.
Waning Crescent, 24% of the Moon is Illuminated
Today
Waning Crescent
Sep 24
New
Oct 1
First Quarter
Oct 8
Full
Oct 15
Last Quarter

Today's Extremes

State Highs State Lows

Community

WunderPhotos

Upload Photos

1,754,484 photos uploaded!

WunderBlogs® & News

Nearby

Air Quality

  Air Quality AQ Index Pollutant
Yesterday Good
PM2.5
Yesterday Good
OZONE
Current Good
PM2.5
Current Good
OZONE
Thursday Unhealthy for Sensitive Groups
OZONE
Friday Good
OZONE
Friday Good
PM2.5

Snow Depth

Station Depth Elevation
No new snow has been reported.

Earthquake Activity

City Distance Mag. Time & Date
No recent earthquake activity has been reported nearby.
Minimum magnitude displayed is 2.5.

Coastal Water Temperatures

Place Temperature
No Stations Reporting

Nearby Weather Stations